<?xml version="1.0" encoding="UTF-8" standalone="no" ?>
<gpx xmlns="http://www.topografix.com/GPX/1/1" xmlns:xsi="http://www.w3.org/2001/XMLSchema-instance" xsi:schemaLocation="http://www.topografix.com/GPX/1/1 http://www.topografix.com/GPX/1/1/gpx.xsd" version="1.1" creator="VisuGPX - https://www.visugpx.com">
  <metadata>
    <name>champignons behoust</name>
    <desc><![CDATA[recherche infructueuse de champignons près de Behoust]]></desc>
  </metadata>
  <trk>
    <name><![CDATA[Nouvelle balade (23/09/13 10:36)]]></name>
    <trkseg>
      <trkpt lat="48.819" lon="1.71955">
        <ele>138.6</ele>
        <time>2013-09-23T08:37:12Z</time>
      </trkpt>
      <trkpt lat="48.81954" lon="1.71884">
        <ele>136.5</ele>
        <time>2013-09-23T08:38:32Z</time>
      </trkpt>
      <trkpt lat="48.81853" lon="1.71867">
        <ele>140</ele>
        <time>2013-09-23T08:40:08Z</time>
      </trkpt>
      <trkpt lat="48.81847" lon="1.71814">
        <ele>139.7</ele>
        <time>2013-09-23T08:41:20Z</time>
      </trkpt>
      <trkpt lat="48.81813" lon="1.71738">
        <ele>137.6</ele>
        <time>2013-09-23T08:42:32Z</time>
      </trkpt>
      <trkpt lat="48.81793" lon="1.71696">
        <ele>136.5</ele>
        <time>2013-09-23T08:42:56Z</time>
      </trkpt>
      <trkpt lat="48.81787" lon="1.71679">
        <ele>136.1</ele>
        <time>2013-09-23T08:43:12Z</time>
      </trkpt>
      <trkpt lat="48.81713" lon="1.71602">
        <ele>136</ele>
        <time>2013-09-23T08:44:24Z</time>
      </trkpt>
      <trkpt lat="48.817" lon="1.7179">
        <ele>145.3</ele>
        <time>2013-09-23T08:46:16Z</time>
      </trkpt>
      <trkpt lat="48.81673" lon="1.71872">
        <ele>147.4</ele>
        <time>2013-09-23T08:47:04Z</time>
      </trkpt>
      <trkpt lat="48.81666" lon="1.7189">
        <ele>148</ele>
        <time>2013-09-23T08:47:36Z</time>
      </trkpt>
      <trkpt lat="48.81686" lon="1.71908">
        <ele>148</ele>
        <time>2013-09-23T08:48:00Z</time>
      </trkpt>
      <trkpt lat="48.81706" lon="1.72007">
        <ele>147</ele>
        <time>2013-09-23T08:48:48Z</time>
      </trkpt>
      <trkpt lat="48.81713" lon="1.72166">
        <ele>145.7</ele>
        <time>2013-09-23T08:51:28Z</time>
      </trkpt>
      <trkpt lat="48.81425" lon="1.723">
        <ele>140.3</ele>
        <time>2013-09-23T08:53:36Z</time>
      </trkpt>
      <trkpt lat="48.81425" lon="1.72206">
        <ele>141.2</ele>
        <time>2013-09-23T08:55:04Z</time>
      </trkpt>
      <trkpt lat="48.81418" lon="1.72201">
        <ele>141</ele>
        <time>2013-09-23T08:55:12Z</time>
      </trkpt>
      <trkpt lat="48.81391" lon="1.72201">
        <ele>140.1</ele>
        <time>2013-09-23T08:55:52Z</time>
      </trkpt>
      <trkpt lat="48.81378" lon="1.72201">
        <ele>139.6</ele>
        <time>2013-09-23T08:56:08Z</time>
      </trkpt>
      <trkpt lat="48.81331" lon="1.7223">
        <ele>138.7</ele>
        <time>2013-09-23T08:56:56Z</time>
      </trkpt>
      <trkpt lat="48.81264" lon="1.72382">
        <ele>136</ele>
        <time>2013-09-23T08:59:04Z</time>
      </trkpt>
      <trkpt lat="48.81311" lon="1.72435">
        <ele>136.1</ele>
        <time>2013-09-23T09:00:08Z</time>
      </trkpt>
      <trkpt lat="48.81324" lon="1.72658">
        <ele>136.5</ele>
        <time>2013-09-23T09:02:16Z</time>
      </trkpt>
      <trkpt lat="48.81324" lon="1.72834">
        <ele>135</ele>
        <time>2013-09-23T09:04:08Z</time>
      </trkpt>
      <trkpt lat="48.81324" lon="1.72881">
        <ele>133.8</ele>
        <time>2013-09-23T09:04:32Z</time>
      </trkpt>
      <trkpt lat="48.81338" lon="1.72916">
        <ele>134.6</ele>
        <time>2013-09-23T09:04:56Z</time>
      </trkpt>
      <trkpt lat="48.81351" lon="1.72952">
        <ele>135.4</ele>
        <time>2013-09-23T09:05:28Z</time>
      </trkpt>
      <trkpt lat="48.81351" lon="1.72987">
        <ele>134.4</ele>
        <time>2013-09-23T09:06:08Z</time>
      </trkpt>
      <trkpt lat="48.81344" lon="1.7304">
        <ele>131.5</ele>
        <time>2013-09-23T09:06:40Z</time>
      </trkpt>
      <trkpt lat="48.81358" lon="1.7304">
        <ele>133.1</ele>
        <time>2013-09-23T09:06:56Z</time>
      </trkpt>
      <trkpt lat="48.81351" lon="1.73057">
        <ele>131.5</ele>
        <time>2013-09-23T09:07:04Z</time>
      </trkpt>
      <trkpt lat="48.81331" lon="1.73157">
        <ele>125.8</ele>
        <time>2013-09-23T09:08:24Z</time>
      </trkpt>
      <trkpt lat="48.81371" lon="1.73274">
        <ele>124.8</ele>
        <time>2013-09-23T09:10:48Z</time>
      </trkpt>
      <trkpt lat="48.81518" lon="1.73274">
        <ele>129.1</ele>
        <time>2013-09-23T09:17:28Z</time>
      </trkpt>
      <trkpt lat="48.81619" lon="1.72917">
        <ele>130.7</ele>
        <time>2013-09-23T09:24:16Z</time>
      </trkpt>
      <trkpt lat="48.81619" lon="1.72928">
        <ele>130.7</ele>
        <time>2013-09-23T09:24:24Z</time>
      </trkpt>
      <trkpt lat="48.81619" lon="1.7287">
        <ele>131.9</ele>
        <time>2013-09-23T09:24:56Z</time>
      </trkpt>
      <trkpt lat="48.81625" lon="1.72829">
        <ele>133.1</ele>
        <time>2013-09-23T09:25:28Z</time>
      </trkpt>
      <trkpt lat="48.81579" lon="1.72811">
        <ele>135.1</ele>
        <time>2013-09-23T09:26:56Z</time>
      </trkpt>
      <trkpt lat="48.8188" lon="1.72723">
        <ele>132.3</ele>
        <time>2013-09-23T09:37:20Z</time>
      </trkpt>
      <trkpt lat="48.81646" lon="1.71755">
        <ele>142.2</ele>
        <time>2013-09-23T09:47:28Z</time>
      </trkpt>
      <trkpt lat="48.81914" lon="1.71826">
        <ele>136.9</ele>
        <time>2013-09-23T09:58:00Z</time>
      </trkpt>
      <trkpt lat="48.81914" lon="1.71826">
        <ele>136.9</ele>
        <time>2013-09-23T09:58:08Z</time>
      </trkpt>
    </trkseg>
  </trk>
</gpx>